Time;durP1;ratioP1;P1;durP2;ratioP2;P2;SDS_P1;SDS_P2;PMS_P1;PMS_P2;Temp;Humidity;BMP_temperature;BMP_pressure;BME280_temperature;BME280_humidity;BME280_pressure;Samples;Min_cycle;Max_cycle;Signal;HPM_P1;HPM_P2
2023/03/19 00:00:16;;;;;;;;;;;24.90;99.90;;;;;;4935027;29;19929;-53
2023/03/19 00:02:48;;;;;;;;;;;24.90;99.90;;;;;;4935327;29;20304;-53
2023/03/19 00:05:14;;;;;;;;;;;24.90;99.90;;;;;;4935255;29;19910;-52
2023/03/19 00:07:40;;;;;;;;;;;24.80;99.90;;;;;;4935380;29;19913;-52
2023/03/19 00:10:05;;;;;;;;;;;24.80;99.90;;;;;;4935250;29;19954;-52
2023/03/19 00:12:31;;;;;;;;;;;24.80;99.90;;;;;;4945842;29;19902;-52
2023/03/19 00:14:56;;;;;;;;;;;24.80;99.90;;;;;;4937170;28;19933;-52
2023/03/19 00:17:22;;;;;;;;;;;24.80;99.90;;;;;;4935150;29;19907;-52
2023/03/19 00:19:48;;;;;;;;;;;24.80;99.90;;;;;;4935015;29;19930;-52
2023/03/19 00:22:13;;;;;;;;;;;24.80;99.90;;;;;;4935116;29;19914;-53
2023/03/19 00:24:39;;;;;;;;;;;24.70;99.90;;;;;;4935230;29;19982;-52
2023/03/19 00:27:05;;;;;;;;;;;24.70;99.90;;;;;;4935217;29;19913;-51
2023/03/19 00:29:31;;;;;;;;;;;24.70;99.90;;;;;;4935061;29;19939;-52
2023/03/19 00:31:56;;;;;;;;;;;24.70;99.90;;;;;;4935276;29;19907;-52
2023/03/19 00:34:22;;;;;;;;;;;24.70;99.90;;;;;;4933725;29;20348;-52
2023/03/19 00:36:47;;;;;;;;;;;24.70;99.90;;;;;;4935113;29;19906;-52
2023/03/19 00:39:13;;;;;;;;;;;24.70;99.90;;;;;;4934851;29;19907;-52
2023/03/19 00:41:39;;;;;;;;;;;24.70;99.90;;;;;;4935246;29;19945;-52
2023/03/19 00:44:05;;;;;;;;;;;24.70;99.90;;;;;;4934881;29;20363;-52
2023/03/19 00:46:31;;;;;;;;;;;24.60;99.90;;;;;;4935079;29;19907;-52
2023/03/19 00:48:57;;;;;;;;;;;24.60;99.90;;;;;;4934894;29;20279;-53
2023/03/19 00:51:23;;;;;;;;;;;24.60;99.90;;;;;;4925056;29;20304;-52
2023/03/19 00:53:49;;;;;;;;;;;24.60;99.90;;;;;;4938458;29;19966;-52
2023/03/19 00:56:17;;;;;;;;;;;24.60;99.90;;;;;;4938349;29;19910;-52
2023/03/19 00:58:43;;;;;;;;;;;24.50;99.90;;;;;;4938578;29;19914;-52
2023/03/19 01:01:09;;;;;;;;;;;24.60;99.90;;;;;;4938776;29;19919;-53
2023/03/19 01:03:35;;;;;;;;;;;24.50;99.90;;;;;;4938430;29;19906;-52
2023/03/19 01:06:01;;;;;;;;;;;24.50;99.90;;;;;;4938289;29;19907;-52
2023/03/19 01:08:27;;;;;;;;;;;24.50;99.90;;;;;;4938283;29;19907;-53
2023/03/19 01:10:52;;;;;;;;;;;24.50;99.90;;;;;;4938277;29;19907;-53
2023/03/19 01:13:18;;;;;;;;;;;24.50;99.90;;;;;;4938219;29;20382;-54
2023/03/19 01:15:44;;;;;;;;;;;24.50;99.90;;;;;;4937875;29;19907;-52
2023/03/19 01:18:10;;;;;;;;;;;24.50;99.90;;;;;;4937188;29;19922;-53
2023/03/19 01:20:37;;;;;;;;;;;24.50;99.90;;;;;;4938104;29;19930;-53
2023/03/19 01:23:03;;;;;;;;;;;24.40;99.90;;;;;;4938129;29;20375;-54
2023/03/19 01:25:29;;;;;;;;;;;24.40;99.90;;;;;;4938077;29;19907;-53
2023/03/19 01:27:55;;;;;;;;;;;24.40;99.90;;;;;;4937800;29;20426;-53
2023/03/19 01:30:20;;;;;;;;;;;24.40;99.90;;;;;;4937974;29;19907;-53
2023/03/19 01:32:46;;;;;;;;;;;24.40;99.90;;;;;;4937726;29;20362;-53
2023/03/19 01:35:12;;;;;;;;;;;24.40;99.90;;;;;;4938096;29;20359;-53
2023/03/19 01:37:37;;;;;;;;;;;24.40;99.90;;;;;;4940820;29;20388;-52
2023/03/19 01:40:04;;;;;;;;;;;24.30;99.90;;;;;;4947565;28;20368;-51
2023/03/19 01:42:30;;;;;;;;;;;24.40;99.90;;;;;;4937567;29;20372;-52
2023/03/19 01:44:56;;;;;;;;;;;24.30;99.90;;;;;;4937715;29;19989;-52
2023/03/19 01:47:33;;;;;;;;;;;24.30;99.90;;;;;;4937457;29;19949;-51
2023/03/19 01:49:59;;;;;;;;;;;24.30;99.90;;;;;;4937753;29;20314;-52
2023/03/19 01:52:26;;;;;;;;;;;24.30;99.90;;;;;;4937437;29;19907;-51
2023/03/19 01:54:53;;;;;;;;;;;24.30;99.90;;;;;;4937680;29;19915;-53
2023/03/19 01:57:21;;;;;;;;;;;24.30;99.90;;;;;;4937610;29;19954;-53
2023/03/19 01:59:51;;;;;;;;;;;24.30;99.90;;;;;;4937879;29;20006;-53
2023/03/19 02:02:25;;;;;;;;;;;24.30;99.90;;;;;;4936401;29;20255;-54
2023/03/19 02:04:55;;;;;;;;;;;24.30;99.90;;;;;;4937444;29;20359;-53
2023/03/19 02:07:20;;;;;;;;;;;24.20;99.90;;;;;;4937327;29;20427;-50
2023/03/19 02:09:46;;;;;;;;;;;24.20;99.90;;;;;;4937577;29;19998;-53
2023/03/19 02:12:12;;;;;;;;;;;24.30;99.90;;;;;;4937514;29;19915;-52
2023/03/19 02:14:38;;;;;;;;;;;24.20;99.90;;;;;;4937257;29;20298;-53
2023/03/19 02:17:05;;;;;;;;;;;24.20;99.90;;;;;;4937291;29;19907;-53
2023/03/19 02:19:34;;;;;;;;;;;24.20;99.90;;;;;;4937027;29;20430;-53
2023/03/19 02:22:01;;;;;;;;;;;24.20;99.90;;;;;;4937125;29;19911;-52
2023/03/19 02:24:34;;;;;;;;;;;24.20;99.90;;;;;;4936946;29;19906;-53
2023/03/19 02:27:00;;;;;;;;;;;24.20;99.90;;;;;;4936915;29;20349;-54
2023/03/19 02:29:26;;;;;;;;;;;24.10;99.90;;;;;;4936892;29;20001;-53
2023/03/19 02:31:51;;;;;;;;;;;24.10;99.90;;;;;;4936942;29;20009;-53
2023/03/19 02:34:20;;;;;;;;;;;24.10;99.90;;;;;;4937114;29;20385;-51
2023/03/19 02:37:18;;;;;;;;;;;24.10;99.90;;;;;;4937153;29;19907;-52
2023/03/19 02:39:44;;;;;;;;;;;24.10;99.90;;;;;;4935634;29;20442;-53
2023/03/19 02:42:10;;;;;;;;;;;24.10;99.90;;;;;;4936759;29;20010;-53
2023/03/19 02:44:36;;;;;;;;;;;24.10;99.90;;;;;;4936542;29;19914;-53
2023/03/19 02:47:02;;;;;;;;;;;24.10;99.90;;;;;;4936710;29;20311;-53
2023/03/19 02:49:28;;;;;;;;;;;24.10;99.90;;;;;;4936462;29;19962;-53
2023/03/19 02:51:54;;;;;;;;;;;24.10;99.90;;;;;;4942909;29;19922;-53
2023/03/19 02:54:19;;;;;;;;;;;24.10;99.90;;;;;;4943197;28;20402;-53
2023/03/19 02:56:45;;;;;;;;;;;24.10;99.90;;;;;;4936441;29;19913;-53
2023/03/19 02:59:13;;;;;;;;;;;24.10;99.90;;;;;;4947587;29;19907;-53
2023/03/19 03:01:39;;;;;;;;;;;24.00;99.90;;;;;;4937212;28;19937;-53
2023/03/19 03:04:05;;;;;;;;;;;24.00;99.90;;;;;;4935100;29;19907;-53
2023/03/19 03:06:31;;;;;;;;;;;24.00;99.90;;;;;;4947713;29;19906;-53
2023/03/19 03:08:57;;;;;;;;;;;24.00;99.90;;;;;;4936142;29;19934;-53
2023/03/19 03:11:22;;;;;;;;;;;24.00;99.90;;;;;;4936075;29;19906;-53
2023/03/19 03:13:48;;;;;;;;;;;24.00;99.90;;;;;;4935923;29;19961;-53
2023/03/19 03:16:14;;;;;;;;;;;23.90;99.90;;;;;;4935910;29;19930;-53
2023/03/19 03:18:40;;;;;;;;;;;24.00;99.90;;;;;;4936086;29;19910;-53
2023/03/19 03:21:05;;;;;;;;;;;24.00;99.90;;;;;;4936026;29;20344;-55
2023/03/19 03:23:31;;;;;;;;;;;23.90;99.90;;;;;;4935850;29;19938;-53
2023/03/19 03:25:57;;;;;;;;;;;23.90;99.90;;;;;;4935767;29;20009;-53
2023/03/19 03:28:23;;;;;;;;;;;23.90;99.90;;;;;;4935890;29;19997;-53
2023/03/19 03:30:49;;;;;;;;;;;23.90;99.90;;;;;;4935907;29;19930;-53
2023/03/19 03:33:16;;;;;;;;;;;23.90;99.90;;;;;;4934516;29;19938;-53
2023/03/19 03:35:41;;;;;;;;;;;23.90;99.90;;;;;;4935620;29;20277;-53
2023/03/19 03:38:07;;;;;;;;;;;23.90;99.90;;;;;;4935775;29;19911;-52
2023/03/19 03:40:33;;;;;;;;;;;23.90;99.90;;;;;;4935689;29;19915;-53
2023/03/19 03:42:59;;;;;;;;;;;23.80;99.90;;;;;;4935703;29;19982;-53
2023/03/19 03:45:24;;;;;;;;;;;23.80;99.90;;;;;;4934560;29;19906;-53
2023/03/19 03:47:51;;;;;;;;;;;23.80;99.90;;;;;;4935746;29;19906;-55
2023/03/19 03:50:17;;;;;;;;;;;23.90;99.90;;;;;;4935792;29;20368;-54
2023/03/19 03:52:42;;;;;;;;;;;23.80;99.90;;;;;;4948168;29;20355;-54
2023/03/19 03:55:08;;;;;;;;;;;23.80;99.90;;;;;;4935639;29;19921;-52
2023/03/19 03:57:34;;;;;;;;;;;23.80;99.90;;;;;;4935506;29;19922;-54
2023/03/19 04:00:00;;;;;;;;;;;23.80;99.90;;;;;;4935764;29;19915;-53
2023/03/19 04:02:26;;;;;;;;;;;23.80;99.90;;;;;;4934069;29;20446;-53
2023/03/19 04:04:52;;;;;;;;;;;23.70;99.90;;;;;;4934423;29;19953;-53
2023/03/19 04:07:18;;;;;;;;;;;23.70;99.90;;;;;;4935465;29;19954;-53
2023/03/19 04:09:44;;;;;;;;;;;23.70;99.90;;;;;;4935811;29;20480;-53
2023/03/19 04:12:11;;;;;;;;;;;23.70;99.90;;;;;;4946105;29;20271;-53
2023/03/19 04:14:37;;;;;;;;;;;23.70;99.90;;;;;;4936814;28;19954;-52
2023/03/19 04:17:03;;;;;;;;;;;23.70;99.90;;;;;;4934231;29;19942;-53
2023/03/19 04:19:30;;;;;;;;;;;23.70;99.90;;;;;;4935248;29;20323;-53
2023/03/19 04:21:56;;;;;;;;;;;23.70;99.90;;;;;;4934119;29;19934;-53
2023/03/19 04:24:22;;;;;;;;;;;23.70;99.90;;;;;;4935252;29;19910;-53
2023/03/19 04:26:48;;;;;;;;;;;23.70;99.90;;;;;;4938977;29;19907;-53
2023/03/19 04:29:14;;;;;;;;;;;23.70;99.90;;;;;;4939090;29;19906;-53
2023/03/19 04:31:40;;;;;;;;;;;23.60;99.90;;;;;;4939194;29;19907;-53
2023/03/19 04:34:05;;;;;;;;;;;23.60;99.90;;;;;;4938952;29;19915;-54
2023/03/19 04:36:32;;;;;;;;;;;23.60;99.90;;;;;;4939021;29;20048;-54
2023/03/19 04:38:57;;;;;;;;;;;23.60;99.90;;;;;;4939000;29;19944;-53
2023/03/19 04:41:23;;;;;;;;;;;23.60;99.90;;;;;;4939011;29;19934;-53
2023/03/19 04:43:48;;;;;;;;;;;23.60;99.90;;;;;;4938874;29;19911;-53
2023/03/19 04:46:14;;;;;;;;;;;23.60;99.90;;;;;;4938741;29;19903;-53
2023/03/19 04:48:40;;;;;;;;;;;23.60;99.90;;;;;;4938856;29;20339;-53
2023/03/19 04:51:08;;;;;;;;;;;23.60;99.90;;;;;;4938629;29;19922;-52
2023/03/19 04:53:34;;;;;;;;;;;23.60;99.90;;;;;;4938758;29;19986;-52
2023/03/19 04:56:00;;;;;;;;;;;23.60;99.90;;;;;;4938719;29;19914;-53
2023/03/19 04:58:26;;;;;;;;;;;23.60;99.90;;;;;;4938788;29;19950;-52
2023/03/19 05:00:52;;;;;;;;;;;23.50;99.90;;;;;;4939365;29;19962;-52
2023/03/19 05:03:17;;;;;;;;;;;23.50;99.90;;;;;;4938566;29;19910;-52
2023/03/19 05:05:43;;;;;;;;;;;23.50;99.90;;;;;;4938309;29;19993;-52
2023/03/19 05:08:09;;;;;;;;;;;23.50;99.90;;;;;;4938413;29;19997;-52
2023/03/19 05:10:35;;;;;;;;;;;23.50;99.90;;;;;;4938471;29;19994;-52
2023/03/19 05:13:00;;;;;;;;;;;23.50;99.90;;;;;;4938352;29;19958;-53
2023/03/19 05:15:26;;;;;;;;;;;23.50;99.90;;;;;;4938342;29;20330;-53
2023/03/19 05:17:52;;;;;;;;;;;23.50;99.90;;;;;;4938285;29;19950;-53
2023/03/19 05:20:18;;;;;;;;;;;23.50;99.90;;;;;;4938183;29;20279;-52
2023/03/19 05:22:45;;;;;;;;;;;23.50;99.90;;;;;;4938320;29;20388;-53
2023/03/19 05:25:11;;;;;;;;;;;23.40;99.90;;;;;;4938215;29;19916;-54
2023/03/19 05:27:36;;;;;;;;;;;23.40;99.90;;;;;;4938023;29;19907;-53
2023/03/19 05:30:03;;;;;;;;;;;23.40;99.90;;;;;;4947041;29;19907;-52
2023/03/19 05:32:29;;;;;;;;;;;23.40;99.90;;;;;;4943538;28;19907;-53
2023/03/19 05:34:54;;;;;;;;;;;23.40;99.90;;;;;;4937859;29;19919;-53
2023/03/19 05:37:20;;;;;;;;;;;23.40;99.90;;;;;;4937753;29;19917;-53
2023/03/19 05:39:46;;;;;;;;;;;23.40;99.90;;;;;;4937746;29;19906;-54
2023/03/19 05:42:11;;;;;;;;;;;23.40;99.90;;;;;;4937819;29;19914;-53
2023/03/19 05:44:37;;;;;;;;;;;23.40;99.90;;;;;;4937869;29;20327;-53
2023/03/19 05:47:03;;;;;;;;;;;23.40;99.90;;;;;;4937713;29;19946;-53
2023/03/19 05:49:28;;;;;;;;;;;23.40;99.90;;;;;;4937806;29;19913;-53
2023/03/19 05:51:54;;;;;;;;;;;23.40;99.90;;;;;;4937670;29;19917;-53
2023/03/19 05:54:20;;;;;;;;;;;23.40;99.90;;;;;;4937491;29;19972;-52
2023/03/19 05:56:45;;;;;;;;;;;23.40;99.90;;;;;;4937701;29;20287;-52
2023/03/19 05:59:11;;;;;;;;;;;23.40;99.90;;;;;;4937512;29;19906;-50
2023/03/19 06:01:36;;;;;;;;;;;23.30;99.90;;;;;;4937362;29;19962;-51
2023/03/19 06:04:02;;;;;;;;;;;23.30;99.90;;;;;;4937385;29;20290;-53
2023/03/19 06:06:28;;;;;;;;;;;23.40;99.90;;;;;;4937336;29;19906;-51
2023/03/19 06:08:53;;;;;;;;;;;23.40;99.90;;;;;;4937367;29;19934;-51
2023/03/19 06:11:19;;;;;;;;;;;23.30;99.90;;;;;;4937172;29;19960;-51
2023/03/19 06:13:45;;;;;;;;;;;23.30;99.90;;;;;;4937253;29;19915;-51
2023/03/19 06:16:10;;;;;;;;;;;23.30;99.90;;;;;;4937103;29;20323;-51
2023/03/19 06:18:37;;;;;;;;;;;23.30;99.90;;;;;;4937280;29;19914;-51
2023/03/19 06:21:03;;;;;;;;;;;23.30;99.90;;;;;;4937326;29;19938;-51
2023/03/19 06:23:29;;;;;;;;;;;23.30;99.90;;;;;;4937215;29;19911;-51
2023/03/19 06:25:54;;;;;;;;;;;23.30;99.90;;;;;;4935787;29;19918;-52
2023/03/19 06:28:20;;;;;;;;;;;23.30;99.90;;;;;;4937058;29;19914;-52
2023/03/19 06:30:45;;;;;;;;;;;23.30;99.90;;;;;;4936982;29;19907;-52
2023/03/19 06:33:11;;;;;;;;;;;23.30;99.90;;;;;;4936734;29;19911;-52
2023/03/19 06:35:37;;;;;;;;;;;23.30;99.90;;;;;;4936859;29;19962;-52
2023/03/19 06:38:02;;;;;;;;;;;23.30;99.90;;;;;;4949771;29;19906;-52
2023/03/19 06:40:28;;;;;;;;;;;23.30;99.90;;;;;;4936704;29;19910;-51
2023/03/19 06:42:53;;;;;;;;;;;23.30;99.90;;;;;;4936681;29;19910;-52
2023/03/19 06:45:19;;;;;;;;;;;23.30;99.90;;;;;;4936655;29;19998;-52
2023/03/19 06:47:46;;;;;;;;;;;23.30;99.90;;;;;;4936078;29;20352;-52
2023/03/19 06:50:12;;;;;;;;;;;23.30;99.90;;;;;;4936501;29;19913;-52
2023/03/19 06:52:37;;;;;;;;;;;23.30;99.90;;;;;;4934983;29;20378;-51
2023/03/19 06:55:04;;;;;;;;;;;23.30;99.90;;;;;;4936715;29;19911;-53
2023/03/19 06:57:29;;;;;;;;;;;23.30;99.90;;;;;;4935364;29;19911;-52
2023/03/19 06:59:55;;;;;;;;;;;23.30;99.90;;;;;;4936415;29;20228;-52
2023/03/19 07:02:22;;;;;;;;;;;23.30;99.90;;;;;;4936499;29;19930;-52
2023/03/19 07:04:47;;;;;;;;;;;23.30;99.90;;;;;;4936110;29;19907;-52
2023/03/19 07:07:13;;;;;;;;;;;23.30;99.90;;;;;;4934994;29;19914;-52
2023/03/19 07:09:38;;;;;;;;;;;23.30;99.90;;;;;;4939683;29;19907;-51
2023/03/19 07:12:04;;;;;;;;;;;23.30;99.90;;;;;;4945754;28;19907;-53
2023/03/19 07:14:30;;;;;;;;;;;23.30;99.90;;;;;;4948796;29;19919;-52
2023/03/19 07:16:55;;;;;;;;;;;23.30;99.90;;;;;;4936166;29;19907;-52
2023/03/19 07:19:21;;;;;;;;;;;23.30;99.90;;;;;;4935804;29;19989;-54
2023/03/19 07:21:47;;;;;;;;;;;23.30;99.90;;;;;;4936282;29;20272;-54
2023/03/19 07:24:13;;;;;;;;;;;23.30;99.90;;;;;;4935759;29;19914;-53
2023/03/19 07:26:39;;;;;;;;;;;23.30;99.90;;;;;;4936003;29;19954;-52
2023/03/19 07:29:05;;;;;;;;;;;23.30;99.90;;;;;;4936263;29;19962;-54
2023/03/19 07:31:30;;;;;;;;;;;23.40;99.90;;;;;;4935509;29;19911;-53
2023/03/19 07:33:56;;;;;;;;;;;23.40;99.90;;;;;;4934329;29;19915;-53
2023/03/19 07:36:22;;;;;;;;;;;23.40;99.90;;;;;;4935629;29;19907;-53
2023/03/19 07:38:48;;;;;;;;;;;23.40;99.90;;;;;;4935753;29;19914;-53
2023/03/19 07:41:14;;;;;;;;;;;23.40;99.90;;;;;;4935661;29;20367;-53
2023/03/19 07:43:40;;;;;;;;;;;23.40;99.90;;;;;;4935774;29;19914;-58
2023/03/19 07:46:06;;;;;;;;;;;23.40;99.90;;;;;;4935879;29;19906;-54
2023/03/19 07:48:32;;;;;;;;;;;23.40;99.90;;;;;;4935337;29;20354;-53
2023/03/19 07:50:57;;;;;;;;;;;23.40;99.90;;;;;;4935623;29;19903;-54
2023/03/19 07:53:23;;;;;;;;;;;23.50;99.90;;;;;;4935475;29;19921;-53
2023/03/19 07:55:49;;;;;;;;;;;23.50;99.90;;;;;;4935641;29;19916;-53
2023/03/19 07:58:15;;;;;;;;;;;23.50;99.90;;;;;;4935618;29;19913;-53
2023/03/19 08:00:41;;;;;;;;;;;23.50;99.90;;;;;;4934814;29;19958;-52
2023/03/19 08:03:07;;;;;;;;;;;23.50;99.90;;;;;;4934289;29;19938;-54
2023/03/19 08:05:33;;;;;;;;;;;23.50;99.90;;;;;;4935364;29;20418;-53
2023/03/19 08:07:59;;;;;;;;;;;23.60;99.90;;;;;;4935086;29;19907;-51
2023/03/19 08:10:24;;;;;;;;;;;23.50;99.90;;;;;;4935465;29;19911;-51
2023/03/19 08:12:50;;;;;;;;;;;23.60;99.90;;;;;;4934642;29;19910;-51
2023/03/19 08:15:15;;;;;;;;;;;23.60;99.90;;;;;;4934167;29;20462;-52
2023/03/19 08:17:41;;;;;;;;;;;23.60;99.90;;;;;;4934975;29;19911;-53
2023/03/19 08:20:08;;;;;;;;;;;23.60;99.90;;;;;;4935492;29;19997;-52
2023/03/19 08:22:35;;;;;;;;;;;23.60;99.90;;;;;;4935139;29;19962;-54
2023/03/19 08:25:01;;;;;;;;;;;23.60;99.90;;;;;;4935270;29;19910;-53
2023/03/19 08:27:29;;;;;;;;;;;23.60;99.90;;;;;;4935230;29;19907;-55
2023/03/19 08:29:55;;;;;;;;;;;23.70;99.90;;;;;;4934938;29;19970;-54
2023/03/19 08:32:20;;;;;;;;;;;23.70;99.90;;;;;;4935062;29;20311;-53
2023/03/19 08:34:46;;;;;;;;;;;23.70;99.90;;;;;;4935273;29;19915;-54
2023/03/19 08:37:11;;;;;;;;;;;23.70;99.90;;;;;;4935371;29;19914;-54
2023/03/19 08:39:37;;;;;;;;;;;23.70;99.90;;;;;;4934132;29;20390;-54
2023/03/19 08:42:03;;;;;;;;;;;23.70;99.90;;;;;;4935022;29;19910;-55
2023/03/19 08:44:28;;;;;;;;;;;23.70;99.90;;;;;;4935346;29;20351;-54
2023/03/19 08:46:54;;;;;;;;;;;23.70;99.90;;;;;;4934918;29;20357;-53
2023/03/19 08:49:20;;;;;;;;;;;23.70;99.90;;;;;;4935038;29;19918;-55
2023/03/19 08:51:45;;;;;;;;;;;23.70;99.90;;;;;;4934928;29;19907;-54
2023/03/19 08:54:12;;;;;;;;;;;23.80;99.90;;;;;;4935204;29;19958;-54
2023/03/19 08:56:38;;;;;;;;;;;23.80;99.90;;;;;;4947988;29;20382;-54
2023/03/19 08:59:04;;;;;;;;;;;23.80;99.90;;;;;;4935027;29;19911;-54
2023/03/19 09:01:29;;;;;;;;;;;23.80;99.90;;;;;;4934951;29;19946;-54
2023/03/19 09:03:55;;;;;;;;;;;23.80;99.90;;;;;;4934776;29;19907;-54
2023/03/19 09:06:21;;;;;;;;;;;23.80;99.90;;;;;;4934978;29;19922;-54
2023/03/19 09:08:46;;;;;;;;;;;23.90;99.90;;;;;;4934875;29;19978;-55
2023/03/19 09:11:13;;;;;;;;;;;23.90;99.90;;;;;;4936123;29;19977;-55
2023/03/19 09:13:38;;;;;;;;;;;23.90;99.90;;;;;;4938091;29;19917;-54
2023/03/19 09:16:05;;;;;;;;;;;23.90;99.90;;;;;;4938254;29;19910;-54
2023/03/19 09:18:31;;;;;;;;;;;23.90;99.90;;;;;;4937943;29;19926;-53
2023/03/19 09:20:57;;;;;;;;;;;23.90;99.90;;;;;;4938166;29;20367;-53
2023/03/19 09:23:22;;;;;;;;;;;23.90;99.90;;;;;;4949613;29;19907;-53
2023/03/19 09:25:48;;;;;;;;;;;23.90;99.90;;;;;;4938036;29;20359;-53
2023/03/19 09:28:14;;;;;;;;;;;23.90;99.90;;;;;;4936870;29;20261;-53
2023/03/19 09:30:40;;;;;;;;;;;24.00;99.90;;;;;;4938039;29;19914;-52
2023/03/19 09:33:06;;;;;;;;;;;24.00;99.90;;;;;;4937941;29;19918;-53
2023/03/19 09:35:32;;;;;;;;;;;24.00;99.90;;;;;;4937942;29;20359;-53
2023/03/19 09:37:58;;;;;;;;;;;24.00;99.90;;;;;;4937801;29;19907;-53
2023/03/19 09:40:26;;;;;;;;;;;24.00;99.90;;;;;;4948464;29;19910;-52
2023/03/19 09:42:59;;;;;;;;;;;24.00;99.90;;;;;;4939655;28;19930;-53
2023/03/19 09:45:26;;;;;;;;;;;24.10;99.90;;;;;;4937895;29;19942;-54
2023/03/19 09:47:54;;;;;;;;;;;24.10;99.90;;;;;;4937859;29;19907;-54
2023/03/19 09:50:22;;;;;;;;;;;24.10;99.90;;;;;;4936460;29;19961;-55
2023/03/19 09:52:56;;;;;;;;;;;24.10;99.90;;;;;;4937404;29;19911;-54
2023/03/19 09:55:24;;;;;;;;;;;24.10;99.90;;;;;;4937622;29;19915;-52
2023/03/19 09:57:52;;;;;;;;;;;24.10;99.90;;;;;;4937695;29;20283;-53
2023/03/19 10:00:20;;;;;;;;;;;24.20;99.90;;;;;;4937534;29;19921;-54
2023/03/19 10:02:46;;;;;;;;;;;24.20;99.90;;;;;;4937551;29;19907;-53
2023/03/19 10:05:15;;;;;;;;;;;24.30;99.90;;;;;;4937338;29;19906;-54
2023/03/19 10:07:44;;;;;;;;;;;24.30;99.90;;;;;;4937334;29;19961;-53
2023/03/19 10:10:42;;;;;;;;;;;24.30;99.90;;;;;;4937427;29;19973;-54
2023/03/19 10:13:08;;;;;;;;;;;24.30;99.90;;;;;;4935951;29;19919;-53
2023/03/19 10:15:35;;;;;;;;;;;24.30;99.90;;;;;;4937219;29;20437;-54
2023/03/19 10:18:06;;;;;;;;;;;24.40;99.90;;;;;;4937247;29;19907;-53
2023/03/19 10:20:36;;;;;;;;;;;24.40;99.90;;;;;;4935968;29;19911;-54
2023/03/19 10:23:16;;;;;;;;;;;24.40;99.90;;;;;;4935978;29;19907;-53
2023/03/19 10:25:43;;;;;;;;;;;24.40;99.90;;;;;;4937108;29;19907;-55
2023/03/19 10:28:15;;;;;;;;;;;24.40;99.90;;;;;;4936941;29;20379;-55
2023/03/19 10:30:43;;;;;;;;;;;24.40;99.90;;;;;;4935574;29;19906;-54
2023/03/19 10:33:16;;;;;;;;;;;24.50;99.90;;;;;;4936815;29;19911;-55
2023/03/19 10:35:43;;;;;;;;;;;24.50;99.90;;;;;;4936692;29;19961;-53
2023/03/19 10:38:35;;;;;;;;;;;24.50;99.90;;;;;;4935650;29;19907;-54
2023/03/19 10:41:19;;;;;;;;;;;24.50;99.90;;;;;;4935136;29;20248;-54
2023/03/19 10:43:47;;;;;;;;;;;24.50;99.90;;;;;;4936987;29;19961;-55
2023/03/19 10:46:14;;;;;;;;;;;24.60;99.90;;;;;;4936764;29;20264;-55
2023/03/19 10:48:42;;;;;;;;;;;24.60;99.90;;;;;;4936597;29;19915;-54
2023/03/19 10:51:09;;;;;;;;;;;24.60;99.90;;;;;;4936444;29;19954;-53
2023/03/19 10:53:36;;;;;;;;;;;24.60;99.90;;;;;;4936219;29;19937;-54
2023/03/19 10:56:03;;;;;;;;;;;24.70;99.90;;;;;;4936424;29;20367;-54
2023/03/19 10:58:30;;;;;;;;;;;24.70;99.90;;;;;;4936401;29;20509;-54
2023/03/19 11:00:57;;;;;;;;;;;24.70;99.90;;;;;;4936107;29;20013;-54
2023/03/19 11:03:31;;;;;;;;;;;24.70;99.90;;;;;;4936238;29;19946;-55
2023/03/19 11:06:04;;;;;;;;;;;24.80;99.90;;;;;;4936257;29;20426;-55
2023/03/19 11:08:32;;;;;;;;;;;24.80;99.90;;;;;;4936297;29;19910;-54
2023/03/19 11:10:58;;;;;;;;;;;24.80;99.90;;;;;;4936427;29;20265;-54
2023/03/19 11:13:25;;;;;;;;;;;24.90;99.90;;;;;;4936296;29;20058;-54
2023/03/19 11:15:51;;;;;;;;;;;24.90;99.90;;;;;;4936220;29;20287;-53
2023/03/19 11:18:21;;;;;;;;;;;25.00;99.90;;;;;;4936397;29;19907;-53
2023/03/19 11:20:48;;;;;;;;;;;25.00;99.90;;;;;;4936178;29;19907;-54
2023/03/19 11:23:15;;;;;;;;;;;25.00;99.90;;;;;;4936076;29;20379;-54
2023/03/19 11:25:46;;;;;;;;;;;25.00;99.90;;;;;;4935916;29;19911;-53
2023/03/19 11:28:16;;;;;;;;;;;25.10;99.90;;;;;;4921795;29;19907;-53
2023/03/19 11:30:47;;;;;;;;;;;25.10;99.90;;;;;;4934522;29;19906;-54
2023/03/19 11:33:19;;;;;;;;;;;25.10;99.90;;;;;;4935649;29;20521;-52
2023/03/19 11:35:52;;;;;;;;;;;25.10;99.90;;;;;;4935512;29;19930;-54
2023/03/19 11:38:23;;;;;;;;;;;25.20;99.90;;;;;;4935824;29;19962;-54
2023/03/19 11:40:49;;;;;;;;;;;25.20;99.90;;;;;;4935780;29;19907;-53
2023/03/19 11:43:23;;;;;;;;;;;25.20;99.90;;;;;;4935793;29;20323;-53
2023/03/19 11:45:55;;;;;;;;;;;25.30;99.90;;;;;;4935696;29;19907;-53
2023/03/19 11:48:21;;;;;;;;;;;25.30;99.90;;;;;;4934653;29;19907;-53
2023/03/19 11:51:02;;;;;;;;;;;25.30;99.90;;;;;;4935612;29;19907;-53
2023/03/19 11:53:30;;;;;;;;;;;25.30;99.90;;;;;;4935537;29;20359;-55
2023/03/19 11:56:04;;;;;;;;;;;25.40;99.90;;;;;;4935476;29;19910;-54
2023/03/19 11:58:48;;;;;;;;;;;25.40;99.90;;;;;;4935465;29;20375;-54
2023/03/19 12:01:32;;;;;;;;;;;25.40;99.90;;;;;;4935249;29;20248;-54
2023/03/19 12:04:16;;;;;;;;;;;25.40;99.90;;;;;;4935359;29;19993;-54
2023/03/19 12:06:44;;;;;;;;;;;25.40;99.90;;;;;;4935303;29;19972;-54
2023/03/19 12:09:13;;;;;;;;;;;25.40;99.90;;;;;;4935303;29;19902;-53
2023/03/19 12:11:48;;;;;;;;;;;25.50;99.90;;;;;;4935263;29;19911;-53
2023/03/19 12:14:22;;;;;;;;;;;25.50;99.90;;;;;;4935243;29;19915;-53
2023/03/19 12:16:51;;;;;;;;;;;25.50;99.90;;;;;;4935360;29;19914;-52
2023/03/19 12:19:33;;;;;;;;;;;25.50;99.90;;;;;;4935108;29;19911;-53
2023/03/19 12:22:14;;;;;;;;;;;25.50;99.90;;;;;;4935443;29;19918;-54
2023/03/19 12:25:02;;;;;;;;;;;25.50;99.90;;;;;;4935702;29;20276;-53
2023/03/19 12:27:34;;;;;;;;;;;25.60;99.90;;;;;;4934821;29;19907;-53
2023/03/19 12:30:02;;;;;;;;;;;25.60;99.90;;;;;;4935221;29;19962;-54
2023/03/19 12:32:47;;;;;;;;;;;25.60;99.90;;;;;;4933863;29;20272;-54
2023/03/19 12:35:15;;;;;;;;;;;25.60;99.90;;;;;;4924456;29;19915;-54
2023/03/19 12:37:51;;;;;;;;;;;25.60;99.90;;;;;;4935105;29;20248;-53
2023/03/19 12:40:19;;;;;;;;;;;25.60;99.90;;;;;;4934968;29;19937;-53
2023/03/19 12:42:45;;;;;;;;;;;25.70;99.90;;;;;;4934888;29;20355;-54
2023/03/19 12:45:18;;;;;;;;;;;25.70;99.90;;;;;;4935060;29;20035;-56
2023/03/19 12:47:45;;;;;;;;;;;25.70;99.90;;;;;;4938327;29;19907;-55
2023/03/19 12:50:13;;;;;;;;;;;25.70;99.90;;;;;;4938770;29;20001;-54
2023/03/19 12:52:49;;;;;;;;;;;25.70;99.90;;;;;;4938477;29;19910;-55
2023/03/19 12:55:35;;;;;;;;;;;25.80;99.90;;;;;;4938697;29;19915;-55
2023/03/19 12:58:13;;;;;;;;;;;25.80;99.90;;;;;;4938540;29;20330;-55
2023/03/19 13:00:50;;;;;;;;;;;25.80;99.90;;;;;;4938477;29;19919;-55
2023/03/19 13:03:19;;;;;;;;;;;25.80;99.90;;;;;;4938698;29;19970;-56
2023/03/19 13:05:47;;;;;;;;;;;25.80;99.90;;;;;;4938578;29;19906;-55
2023/03/19 13:08:16;;;;;;;;;;;25.80;99.90;;;;;;4938509;29;19911;-54
2023/03/19 13:10:41;;;;;;;;;;;25.80;99.90;;;;;;4938576;29;20005;-54
2023/03/19 13:13:30;;;;;;;;;;;25.90;99.90;;;;;;4938187;29;20001;-56
2023/03/19 13:15:59;;;;;;;;;;;25.80;99.90;;;;;;4937963;29;19911;-54
2023/03/19 13:18:42;;;;;;;;;;;25.80;99.90;;;;;;4938523;29;20348;-54
2023/03/19 13:21:17;;;;;;;;;;;25.90;99.90;;;;;;4938094;29;19917;-53
2023/03/19 13:23:44;;;;;;;;;;;25.90;99.90;;;;;;4937021;29;20271;-53
2023/03/19 13:26:11;;;;;;;;;;;25.90;99.90;;;;;;4938032;29;19934;-53
2023/03/19 13:28:51;;;;;;;;;;;25.90;99.90;;;;;;4938103;29;19907;-54
2023/03/19 13:31:22;;;;;;;;;;;25.90;99.90;;;;;;4937859;29;19945;-54
2023/03/19 13:34:03;;;;;;;;;;;25.90;99.90;;;;;;4937979;29;19915;-55
2023/03/19 13:36:33;;;;;;;;;;;25.90;99.90;;;;;;4938121;29;19913;-55
2023/03/19 13:38:59;;;;;;;;;;;25.90;99.90;;;;;;4938165;29;19913;-54
2023/03/19 13:41:33;;;;;;;;;;;25.90;99.90;;;;;;4937711;29;19914;-54
2023/03/19 13:44:00;;;;;;;;;;;25.90;99.90;;;;;;4937995;29;19910;-54
2023/03/19 13:46:29;;;;;;;;;;;25.90;99.90;;;;;;4937810;29;19913;-54
2023/03/19 13:49:03;;;;;;;;;;;25.90;99.90;;;;;;4937828;29;19907;-56
2023/03/19 13:51:29;;;;;;;;;;;25.90;99.90;;;;;;4937857;29;19934;-55
2023/03/19 13:54:11;;;;;;;;;;;25.90;99.90;;;;;;4937618;29;20359;-54
2023/03/19 13:56:57;;;;;;;;;;;25.90;99.90;;;;;;4937416;29;20390;-54
2023/03/19 13:59:25;;;;;;;;;;;26.00;99.90;;;;;;4936588;29;19917;-53
2023/03/19 14:01:51;;;;;;;;;;;26.00;99.90;;;;;;4937484;29;19919;-55
2023/03/19 14:04:26;;;;;;;;;;;26.00;99.90;;;;;;4937335;29;20279;-53
2023/03/19 14:06:55;;;;;;;;;;;26.00;99.90;;;;;;4937452;29;20001;-53
2023/03/19 14:09:33;;;;;;;;;;;26.00;99.90;;;;;;4937353;29;20256;-53
2023/03/19 14:12:22;;;;;;;;;;;26.00;99.90;;;;;;4937654;29;20413;-56
2023/03/19 14:14:47;;;;;;;;;;;26.00;99.90;;;;;;4935958;29;19915;-54
2023/03/19 14:17:14;;;;;;;;;;;26.00;99.90;;;;;;4937070;29;19953;-53
2023/03/19 14:19:40;;;;;;;;;;;26.00;99.90;;;;;;4937208;29;19907;-54